sensor_id;sensor_type;location;lat;lon;timestamp;temperature;humidity
16846;DHT22;8539;53.188;8.696;2023-06-14T00:01:03;15.50;92.20
16846;DHT22;8539;53.188;8.696;2023-06-14T00:03:32;15.50;92.40
16846;DHT22;8539;53.188;8.696;2023-06-14T00:05:59;15.50;92.50
16846;DHT22;8539;53.188;8.696;2023-06-14T00:08:25;15.40;92.70
16846;DHT22;8539;53.188;8.696;2023-06-14T00:10:52;15.40;92.90
16846;DHT22;8539;53.188;8.696;2023-06-14T00:13:18;15.40;93.10
16846;DHT22;8539;53.188;8.696;2023-06-14T00:15:45;15.40;93.30
16846;DHT22;8539;53.188;8.696;2023-06-14T00:18:12;15.40;93.50
16846;DHT22;8539;53.188;8.696;2023-06-14T00:20:38;15.40;93.60
16846;DHT22;8539;53.188;8.696;2023-06-14T00:23:05;15.30;93.80
16846;DHT22;8539;53.188;8.696;2023-06-14T00:25:31;15.30;94.00
16846;DHT22;8539;53.188;8.696;2023-06-14T00:27:57;15.30;94.20
16846;DHT22;8539;53.188;8.696;2023-06-14T00:30:24;15.20;94.40
16846;DHT22;8539;53.188;8.696;2023-06-14T00:32:51;15.20;94.60
16846;DHT22;8539;53.188;8.696;2023-06-14T00:35:17;15.10;94.80
16846;DHT22;8539;53.188;8.696;2023-06-14T00:37:43;15.10;95.10
16846;DHT22;8539;53.188;8.696;2023-06-14T00:40:09;15.00;95.20
16846;DHT22;8539;53.188;8.696;2023-06-14T00:42:36;14.90;95.50
16846;DHT22;8539;53.188;8.696;2023-06-14T00:45:02;14.90;95.70
16846;DHT22;8539;53.188;8.696;2023-06-14T00:47:28;14.90;96.00
16846;DHT22;8539;53.188;8.696;2023-06-14T00:49:55;14.90;96.30
16846;DHT22;8539;53.188;8.696;2023-06-14T00:52:23;14.90;96.50
16846;DHT22;8539;53.188;8.696;2023-06-14T00:54:50;14.80;96.70
16846;DHT22;8539;53.188;8.696;2023-06-14T00:57:16;14.80;97.00
16846;DHT22;8539;53.188;8.696;2023-06-14T00:59:48;14.80;97.30
16846;DHT22;8539;53.188;8.696;2023-06-14T01:02:15;14.80;97.50
16846;DHT22;8539;53.188;8.696;2023-06-14T01:04:43;14.80;97.70
16846;DHT22;8539;53.188;8.696;2023-06-14T01:13:38;14.70;98.30
16846;DHT22;8539;53.188;8.696;2023-06-14T01:16:08;14.70;98.50
16846;DHT22;8539;53.188;8.696;2023-06-14T01:18:35;14.70;98.80
16846;DHT22;8539;53.188;8.696;2023-06-14T01:21:02;14.70;99.00
16846;DHT22;8539;53.188;8.696;2023-06-14T01:23:32;14.60;99.30
16846;DHT22;8539;53.188;8.696;2023-06-14T01:25:59;14.60;99.50
16846;DHT22;8539;53.188;8.696;2023-06-14T01:28:26;14.60;99.70
16846;DHT22;8539;53.188;8.696;2023-06-14T01:31:00;14.60;99.80
16846;DHT22;8539;53.188;8.696;2023-06-14T01:33:30;14.50;99.80
16846;DHT22;8539;53.188;8.696;2023-06-14T01:35:57;14.50;99.90
16846;DHT22;8539;53.188;8.696;2023-06-14T01:38:25;14.50;99.90
16846;DHT22;8539;53.188;8.696;2023-06-14T01:40:55;14.50;99.90
16846;DHT22;8539;53.188;8.696;2023-06-14T01:43:23;14.50;99.90
16846;DHT22;8539;53.188;8.696;2023-06-14T01:45:51;14.40;99.90
16846;DHT22;8539;53.188;8.696;2023-06-14T01:48:18;14.40;99.90
16846;DHT22;8539;53.188;8.696;2023-06-14T01:50:44;14.40;99.90
16846;DHT22;8539;53.188;8.696;2023-06-14T01:53:10;14.40;99.90
16846;DHT22;8539;53.188;8.696;2023-06-14T01:55:37;14.30;99.90
16846;DHT22;8539;53.188;8.696;2023-06-14T01:58:04;14.30;99.90
16846;DHT22;8539;53.188;8.696;2023-06-14T02:00:30;14.40;99.90
16846;DHT22;8539;53.188;8.696;2023-06-14T02:02:58;14.30;99.90
16846;DHT22;8539;53.188;8.696;2023-06-14T02:05:24;14.30;99.90
16846;DHT22;8539;53.188;8.696;2023-06-14T02:07:50;14.30;99.90
16846;DHT22;8539;53.188;8.696;2023-06-14T02:10:16;14.30;99.90
16846;DHT22;8539;53.188;8.696;2023-06-14T02:12:43;14.20;99.90
16846;DHT22;8539;53.188;8.696;2023-06-14T02:15:10;14.20;99.90
16846;DHT22;8539;53.188;8.696;2023-06-14T02:17:45;14.20;99.90
16846;DHT22;8539;53.188;8.696;2023-06-14T02:20:13;14.20;99.90
16846;DHT22;8539;53.188;8.696;2023-06-14T02:22:39;14.10;99.90
16846;DHT22;8539;53.188;8.696;2023-06-14T02:25:06;14.10;99.90
16846;DHT22;8539;53.188;8.696;2023-06-14T02:27:33;14.10;99.90
16846;DHT22;8539;53.188;8.696;2023-06-14T02:30:00;14.10;99.90
16846;DHT22;8539;53.188;8.696;2023-06-14T02:32:26;14.00;99.90
16846;DHT22;8539;53.188;8.696;2023-06-14T02:34:53;14.00;99.90
16846;DHT22;8539;53.188;8.696;2023-06-14T02:37:20;14.00;99.90
16846;DHT22;8539;53.188;8.696;2023-06-14T02:39:46;14.00;99.90
16846;DHT22;8539;53.188;8.696;2023-06-14T02:42:12;13.90;99.90
16846;DHT22;8539;53.188;8.696;2023-06-14T02:44:38;13.90;99.90
16846;DHT22;8539;53.188;8.696;2023-06-14T02:47:05;13.90;99.90
16846;DHT22;8539;53.188;8.696;2023-06-14T02:49:31;13.90;99.90
16846;DHT22;8539;53.188;8.696;2023-06-14T02:51:57;13.90;99.90
16846;DHT22;8539;53.188;8.696;2023-06-14T02:54:23;13.90;99.90
16846;DHT22;8539;53.188;8.696;2023-06-14T02:56:50;13.90;99.90
16846;DHT22;8539;53.188;8.696;2023-06-14T02:59:16;13.90;99.90
16846;DHT22;8539;53.188;8.696;2023-06-14T03:01:43;13.90;99.90
16846;DHT22;8539;53.188;8.696;2023-06-14T03:04:09;13.90;99.90
16846;DHT22;8539;53.188;8.696;2023-06-14T03:06:35;13.90;99.90
16846;DHT22;8539;53.188;8.696;2023-06-14T03:09:03;13.80;99.90
16846;DHT22;8539;53.188;8.696;2023-06-14T03:11:32;13.80;99.90
16846;DHT22;8539;53.188;8.696;2023-06-14T03:13:58;13.80;99.90
16846;DHT22;8539;53.188;8.696;2023-06-14T03:16:25;13.80;99.90
16846;DHT22;8539;53.188;8.696;2023-06-14T03:18:51;13.90;99.90
16846;DHT22;8539;53.188;8.696;2023-06-14T03:21:18;13.80;99.90
16846;DHT22;8539;53.188;8.696;2023-06-14T03:23:47;13.80;99.90
16846;DHT22;8539;53.188;8.696;2023-06-14T03:26:13;13.80;99.90
16846;DHT22;8539;53.188;8.696;2023-06-14T03:28:41;13.80;99.90
16846;DHT22;8539;53.188;8.696;2023-06-14T03:31:07;13.80;99.90
16846;DHT22;8539;53.188;8.696;2023-06-14T03:33:34;13.80;99.90
16846;DHT22;8539;53.188;8.696;2023-06-14T03:36:02;13.80;99.90
16846;DHT22;8539;53.188;8.696;2023-06-14T03:38:29;13.70;99.90
16846;DHT22;8539;53.188;8.696;2023-06-14T03:40:55;13.70;99.90
16846;DHT22;8539;53.188;8.696;2023-06-14T03:43:21;13.70;99.90
16846;DHT22;8539;53.188;8.696;2023-06-14T03:45:47;13.70;99.90
16846;DHT22;8539;53.188;8.696;2023-06-14T03:48:13;13.70;99.90
16846;DHT22;8539;53.188;8.696;2023-06-14T03:50:39;13.70;99.90
16846;DHT22;8539;53.188;8.696;2023-06-14T03:53:06;13.70;99.90
16846;DHT22;8539;53.188;8.696;2023-06-14T03:55:32;13.70;99.90
16846;DHT22;8539;53.188;8.696;2023-06-14T03:57:59;13.70;99.90
16846;DHT22;8539;53.188;8.696;2023-06-14T04:00:26;13.70;99.90
16846;DHT22;8539;53.188;8.696;2023-06-14T04:02:53;13.70;99.90
16846;DHT22;8539;53.188;8.696;2023-06-14T04:05:19;13.80;99.90
16846;DHT22;8539;53.188;8.696;2023-06-14T04:07:46;13.80;99.90
16846;DHT22;8539;53.188;8.696;2023-06-14T04:10:15;13.80;99.90
16846;DHT22;8539;53.188;8.696;2023-06-14T04:12:42;13.90;99.90
16846;DHT22;8539;53.188;8.696;2023-06-14T04:15:09;13.90;99.90
16846;DHT22;8539;53.188;8.696;2023-06-14T04:17:37;13.90;99.90
16846;DHT22;8539;53.188;8.696;2023-06-14T04:20:03;14.00;99.90
16846;DHT22;8539;53.188;8.696;2023-06-14T04:22:34;14.00;99.90
16846;DHT22;8539;53.188;8.696;2023-06-14T04:25:00;14.00;99.90
16846;DHT22;8539;53.188;8.696;2023-06-14T04:27:27;14.00;99.90
16846;DHT22;8539;53.188;8.696;2023-06-14T04:29:53;14.10;99.90
16846;DHT22;8539;53.188;8.696;2023-06-14T04:32:24;14.20;99.90
16846;DHT22;8539;53.188;8.696;2023-06-14T04:34:55;14.20;99.90
16846;DHT22;8539;53.188;8.696;2023-06-14T04:37:22;14.20;99.90
16846;DHT22;8539;53.188;8.696;2023-06-14T04:39:48;14.30;99.90
16846;DHT22;8539;53.188;8.696;2023-06-14T04:42:14;14.40;99.90
16846;DHT22;8539;53.188;8.696;2023-06-14T04:44:42;14.40;99.90
16846;DHT22;8539;53.188;8.696;2023-06-14T04:47:13;14.50;99.90
16846;DHT22;8539;53.188;8.696;2023-06-14T04:49:40;14.50;99.90
16846;DHT22;8539;53.188;8.696;2023-06-14T04:52:07;14.60;99.90
16846;DHT22;8539;53.188;8.696;2023-06-14T04:54:36;14.60;99.90
16846;DHT22;8539;53.188;8.696;2023-06-14T04:57:08;14.80;99.90
16846;DHT22;8539;53.188;8.696;2023-06-14T04:59:35;15.10;99.90
16846;DHT22;8539;53.188;8.696;2023-06-14T05:02:01;15.30;99.90
16846;DHT22;8539;53.188;8.696;2023-06-14T05:04:28;15.40;99.90
16846;DHT22;8539;53.188;8.696;2023-06-14T05:06:54;15.60;99.90
16846;DHT22;8539;53.188;8.696;2023-06-14T05:09:21;16.10;99.90
16846;DHT22;8539;53.188;8.696;2023-06-14T05:11:47;16.40;99.90
16846;DHT22;8539;53.188;8.696;2023-06-14T05:14:14;16.50;99.90
16846;DHT22;8539;53.188;8.696;2023-06-14T05:16:40;16.50;99.90
16846;DHT22;8539;53.188;8.696;2023-06-14T05:19:07;16.50;99.90
16846;DHT22;8539;53.188;8.696;2023-06-14T05:21:33;16.50;99.90
16846;DHT22;8539;53.188;8.696;2023-06-14T05:24:00;16.50;99.90
16846;DHT22;8539;53.188;8.696;2023-06-14T05:26:27;16.40;99.90
16846;DHT22;8539;53.188;8.696;2023-06-14T05:28:56;16.50;99.90
16846;DHT22;8539;53.188;8.696;2023-06-14T05:31:24;16.60;99.90
16846;DHT22;8539;53.188;8.696;2023-06-14T05:33:51;17.20;99.90
16846;DHT22;8539;53.188;8.696;2023-06-14T05:36:17;17.80;99.90
16846;DHT22;8539;53.188;8.696;2023-06-14T05:38:45;18.00;99.90
16846;DHT22;8539;53.188;8.696;2023-06-14T05:41:11;17.90;99.90
16846;DHT22;8539;53.188;8.696;2023-06-14T05:43:38;17.90;99.90
16846;DHT22;8539;53.188;8.696;2023-06-14T05:46:04;17.80;99.90
16846;DHT22;8539;53.188;8.696;2023-06-14T05:48:31;17.70;99.90
16846;DHT22;8539;53.188;8.696;2023-06-14T05:50:57;17.90;99.90
16846;DHT22;8539;53.188;8.696;2023-06-14T05:53:23;18.50;99.80
16846;DHT22;8539;53.188;8.696;2023-06-14T05:55:50;18.60;99.70
16846;DHT22;8539;53.188;8.696;2023-06-14T05:58:21;18.50;99.50
16846;DHT22;8539;53.188;8.696;2023-06-14T06:00:51;18.50;99.30
16846;DHT22;8539;53.188;8.696;2023-06-14T06:03:20;18.50;99.20
16846;DHT22;8539;53.188;8.696;2023-06-14T06:05:47;18.70;99.00
16846;DHT22;8539;53.188;8.696;2023-06-14T06:08:13;19.00;98.80
16846;DHT22;8539;53.188;8.696;2023-06-14T06:10:39;19.00;98.50
16846;DHT22;8539;53.188;8.696;2023-06-14T06:13:05;18.90;98.30
16846;DHT22;8539;53.188;8.696;2023-06-14T06:15:31;18.70;98.20
16846;DHT22;8539;53.188;8.696;2023-06-14T06:17:58;18.60;98.10
16846;DHT22;8539;53.188;8.696;2023-06-14T06:20:24;18.50;98.00
16846;DHT22;8539;53.188;8.696;2023-06-14T06:22:54;18.30;98.10
16846;DHT22;8539;53.188;8.696;2023-06-14T06:25:21;18.20;98.30
16846;DHT22;8539;53.188;8.696;2023-06-14T06:27:48;18.20;98.70
16846;DHT22;8539;53.188;8.696;2023-06-14T06:30:14;18.30;98.90
16846;DHT22;8539;53.188;8.696;2023-06-14T06:32:40;18.40;99.20
16846;DHT22;8539;53.188;8.696;2023-06-14T06:35:06;18.50;99.30
16846;DHT22;8539;53.188;8.696;2023-06-14T06:37:36;18.60;99.40
16846;DHT22;8539;53.188;8.696;2023-06-14T06:40:03;18.60;99.30
16846;DHT22;8539;53.188;8.696;2023-06-14T06:42:32;18.80;99.20
16846;DHT22;8539;53.188;8.696;2023-06-14T06:44:58;19.00;99.00
16846;DHT22;8539;53.188;8.696;2023-06-14T06:47:24;19.20;98.80
16846;DHT22;8539;53.188;8.696;2023-06-14T06:49:51;19.40;98.60
16846;DHT22;8539;53.188;8.696;2023-06-14T06:52:17;19.50;98.40
16846;DHT22;8539;53.188;8.696;2023-06-14T06:54:43;19.70;98.10
16846;DHT22;8539;53.188;8.696;2023-06-14T06:57:09;19.80;97.70
16846;DHT22;8539;53.188;8.696;2023-06-14T06:59:36;19.90;97.40
16846;DHT22;8539;53.188;8.696;2023-06-14T07:02:03;19.90;97.00
16846;DHT22;8539;53.188;8.696;2023-06-14T07:04:29;20.00;96.50
16846;DHT22;8539;53.188;8.696;2023-06-14T07:06:55;20.00;96.20
16846;DHT22;8539;53.188;8.696;2023-06-14T07:09:21;20.10;95.90
16846;DHT22;8539;53.188;8.696;2023-06-14T07:11:48;20.20;95.60
16846;DHT22;8539;53.188;8.696;2023-06-14T07:14:14;20.20;95.20
16846;DHT22;8539;53.188;8.696;2023-06-14T07:16:40;20.20;94.90
16846;DHT22;8539;53.188;8.696;2023-06-14T07:19:07;20.30;94.80
16846;DHT22;8539;53.188;8.696;2023-06-14T07:21:34;20.30;94.70
16846;DHT22;8539;53.188;8.696;2023-06-14T07:24:06;20.30;94.60
16846;DHT22;8539;53.188;8.696;2023-06-14T07:26:33;20.40;94.40
16846;DHT22;8539;53.188;8.696;2023-06-14T07:29:01;20.40;94.40
16846;DHT22;8539;53.188;8.696;2023-06-14T07:31:28;20.50;94.20
16846;DHT22;8539;53.188;8.696;2023-06-14T07:33:54;20.60;93.90
16846;DHT22;8539;53.188;8.696;2023-06-14T07:36:20;20.70;93.70
16846;DHT22;8539;53.188;8.696;2023-06-14T07:38:46;20.80;93.30
16846;DHT22;8539;53.188;8.696;2023-06-14T07:41:12;20.90;93.00
16846;DHT22;8539;53.188;8.696;2023-06-14T07:43:38;21.00;92.60
16846;DHT22;8539;53.188;8.696;2023-06-14T07:46:04;21.00;92.20
16846;DHT22;8539;53.188;8.696;2023-06-14T07:48:31;21.00;91.80
16846;DHT22;8539;53.188;8.696;2023-06-14T07:50:57;21.00;91.40
16846;DHT22;8539;53.188;8.696;2023-06-14T07:53:24;21.00;91.20
16846;DHT22;8539;53.188;8.696;2023-06-14T07:55:51;21.10;91.00
16846;DHT22;8539;53.188;8.696;2023-06-14T07:58:18;21.20;90.80
16846;DHT22;8539;53.188;8.696;2023-06-14T08:00:44;21.30;90.40
16846;DHT22;8539;53.188;8.696;2023-06-14T08:03:12;21.30;90.20
16846;DHT22;8539;53.188;8.696;2023-06-14T08:05:38;21.40;90.00
16846;DHT22;8539;53.188;8.696;2023-06-14T08:08:04;21.40;89.70
16846;DHT22;8539;53.188;8.696;2023-06-14T08:10:31;21.50;89.50
16846;DHT22;8539;53.188;8.696;2023-06-14T08:12:57;21.60;89.10
16846;DHT22;8539;53.188;8.696;2023-06-14T08:15:23;21.70;88.80
16846;DHT22;8539;53.188;8.696;2023-06-14T08:17:49;21.70;88.40
16846;DHT22;8539;53.188;8.696;2023-06-14T08:20:16;21.70;88.20
16846;DHT22;8539;53.188;8.696;2023-06-14T08:22:42;21.80;87.80
16846;DHT22;8539;53.188;8.696;2023-06-14T08:25:09;21.80;86.90
16846;DHT22;8539;53.188;8.696;2023-06-14T08:27:35;21.80;86.70
16846;DHT22;8539;53.188;8.696;2023-06-14T08:30:02;21.80;86.60
16846;DHT22;8539;53.188;8.696;2023-06-14T08:32:29;21.90;86.40
16846;DHT22;8539;53.188;8.696;2023-06-14T08:34:55;22.00;86.30
16846;DHT22;8539;53.188;8.696;2023-06-14T08:37:21;22.10;86.20
16846;DHT22;8539;53.188;8.696;2023-06-14T08:39:47;22.30;86.40
16846;DHT22;8539;53.188;8.696;2023-06-14T08:42:14;22.50;86.40
16846;DHT22;8539;53.188;8.696;2023-06-14T08:44:41;22.60;86.20
16846;DHT22;8539;53.188;8.696;2023-06-14T08:47:07;22.80;86.10
16846;DHT22;8539;53.188;8.696;2023-06-14T08:49:37;23.00;85.80
16846;DHT22;8539;53.188;8.696;2023-06-14T08:52:05;23.10;85.50
16846;DHT22;8539;53.188;8.696;2023-06-14T08:54:34;23.20;84.30
16846;DHT22;8539;53.188;8.696;2023-06-14T08:57:06;23.20;84.10
16846;DHT22;8539;53.188;8.696;2023-06-14T08:59:33;23.20;83.60
16846;DHT22;8539;53.188;8.696;2023-06-14T09:02:06;23.30;83.30
16846;DHT22;8539;53.188;8.696;2023-06-14T09:04:32;23.30;83.10
16846;DHT22;8539;53.188;8.696;2023-06-14T09:06:59;23.40;82.90
16846;DHT22;8539;53.188;8.696;2023-06-14T09:09:25;23.50;83.30
16846;DHT22;8539;53.188;8.696;2023-06-14T09:11:52;23.70;83.10
16846;DHT22;8539;53.188;8.696;2023-06-14T09:14:18;23.80;83.00
16846;DHT22;8539;53.188;8.696;2023-06-14T09:16:45;24.00;82.90
16846;DHT22;8539;53.188;8.696;2023-06-14T09:19:24;24.20;82.40
16846;DHT22;8539;53.188;8.696;2023-06-14T09:21:52;24.10;81.90
16846;DHT22;8539;53.188;8.696;2023-06-14T09:24:19;24.10;81.70
16846;DHT22;8539;53.188;8.696;2023-06-14T09:26:50;24.10;81.50
16846;DHT22;8539;53.188;8.696;2023-06-14T09:29:18;24.10;81.20
16846;DHT22;8539;53.188;8.696;2023-06-14T09:31:47;24.10;81.00
16846;DHT22;8539;53.188;8.696;2023-06-14T09:34:13;24.10;80.90
16846;DHT22;8539;53.188;8.696;2023-06-14T09:36:42;24.10;80.80
16846;DHT22;8539;53.188;8.696;2023-06-14T09:39:08;24.30;80.70
16846;DHT22;8539;53.188;8.696;2023-06-14T09:41:36;24.40;80.80
16846;DHT22;8539;53.188;8.696;2023-06-14T09:44:04;24.50;80.80
16846;DHT22;8539;53.188;8.696;2023-06-14T09:46:31;24.60;80.70
16846;DHT22;8539;53.188;8.696;2023-06-14T09:48:58;24.80;80.60
16846;DHT22;8539;53.188;8.696;2023-06-14T09:51:25;24.90;80.10
16846;DHT22;8539;53.188;8.696;2023-06-14T09:53:53;25.00;79.30
16846;DHT22;8539;53.188;8.696;2023-06-14T09:56:37;25.00;79.00
16846;DHT22;8539;53.188;8.696;2023-06-14T09:59:05;25.10;78.90
16846;DHT22;8539;53.188;8.696;2023-06-14T10:01:33;25.30;78.70
16846;DHT22;8539;53.188;8.696;2023-06-14T10:04:05;25.50;78.70
16846;DHT22;8539;53.188;8.696;2023-06-14T10:06:32;25.70;77.50
16846;DHT22;8539;53.188;8.696;2023-06-14T10:09:00;25.70;77.20
16846;DHT22;8539;53.188;8.696;2023-06-14T10:11:27;25.60;76.50
16846;DHT22;8539;53.188;8.696;2023-06-14T10:13:55;25.60;75.90
16846;DHT22;8539;53.188;8.696;2023-06-14T10:16:27;25.70;75.70
16846;DHT22;8539;53.188;8.696;2023-06-14T10:19:22;25.90;75.70
16846;DHT22;8539;53.188;8.696;2023-06-14T10:21:58;26.00;75.60
16846;DHT22;8539;53.188;8.696;2023-06-14T10:24:37;26.20;75.30
16846;DHT22;8539;53.188;8.696;2023-06-14T10:27:07;26.50;75.20
16846;DHT22;8539;53.188;8.696;2023-06-14T10:32:24;26.20;74.40
16846;DHT22;8539;53.188;8.696;2023-06-14T10:34:56;26.30;73.90
16846;DHT22;8539;53.188;8.696;2023-06-14T10:37:25;26.30;73.50
16846;DHT22;8539;53.188;8.696;2023-06-14T10:39:51;26.20;73.20
16846;DHT22;8539;53.188;8.696;2023-06-14T10:42:19;26.20;72.90
16846;DHT22;8539;53.188;8.696;2023-06-14T10:44:53;26.10;72.90
16846;DHT22;8539;53.188;8.696;2023-06-14T10:47:36;26.20;72.60
16846;DHT22;8539;53.188;8.696;2023-06-14T10:50:10;26.10;72.30
16846;DHT22;8539;53.188;8.696;2023-06-14T10:52:41;26.20;72.40
16846;DHT22;8539;53.188;8.696;2023-06-14T10:55:17;26.30;72.30
16846;DHT22;8539;53.188;8.696;2023-06-14T10:57:49;26.40;72.00
16846;DHT22;8539;53.188;8.696;2023-06-14T11:00:23;26.40;71.80
16846;DHT22;8539;53.188;8.696;2023-06-14T11:03:22;26.50;71.60
16846;DHT22;8539;53.188;8.696;2023-06-14T11:05:52;26.60;71.50
16846;DHT22;8539;53.188;8.696;2023-06-14T11:10:51;26.70;71.20
16846;DHT22;8539;53.188;8.696;2023-06-14T11:13:20;26.90;71.20
16846;DHT22;8539;53.188;8.696;2023-06-14T11:15:50;27.10;70.90
16846;DHT22;8539;53.188;8.696;2023-06-14T11:18:18;27.20;70.60
16846;DHT22;8539;53.188;8.696;2023-06-14T11:20:46;27.30;70.00
16846;DHT22;8539;53.188;8.696;2023-06-14T11:23:14;27.20;69.60
16846;DHT22;8539;53.188;8.696;2023-06-14T11:25:40;27.20;69.50
16846;DHT22;8539;53.188;8.696;2023-06-14T11:28:06;27.20;69.40
16846;DHT22;8539;53.188;8.696;2023-06-14T11:30:32;27.00;69.20
16846;DHT22;8539;53.188;8.696;2023-06-14T11:32:58;26.90;68.90
16846;DHT22;8539;53.188;8.696;2023-06-14T11:35:25;26.80;69.00
16846;DHT22;8539;53.188;8.696;2023-06-14T11:37:56;26.80;69.10
16846;DHT22;8539;53.188;8.696;2023-06-14T11:40:27;26.90;68.70
16846;DHT22;8539;53.188;8.696;2023-06-14T11:43:00;26.90;68.50
16846;DHT22;8539;53.188;8.696;2023-06-14T11:45:27;26.90;68.10
16846;DHT22;8539;53.188;8.696;2023-06-14T11:48:00;26.80;68.00
16846;DHT22;8539;53.188;8.696;2023-06-14T11:50:28;26.70;67.80
16846;DHT22;8539;53.188;8.696;2023-06-14T11:52:56;26.60;67.80
16846;DHT22;8539;53.188;8.696;2023-06-14T11:55:38;26.60;67.90
16846;DHT22;8539;53.188;8.696;2023-06-14T11:58:10;26.70;67.70
16846;DHT22;8539;53.188;8.696;2023-06-14T12:00:37;26.60;67.90
16846;DHT22;8539;53.188;8.696;2023-06-14T12:03:03;26.60;67.90
16846;DHT22;8539;53.188;8.696;2023-06-14T12:05:29;26.70;67.90
16846;DHT22;8539;53.188;8.696;2023-06-14T12:08:03;26.70;67.80
16846;DHT22;8539;53.188;8.696;2023-06-14T12:10:40;26.60;67.80
16846;DHT22;8539;53.188;8.696;2023-06-14T12:13:07;26.60;67.90
16846;DHT22;8539;53.188;8.696;2023-06-14T12:15:34;26.60;67.90
16846;DHT22;8539;53.188;8.696;2023-06-14T12:18:00;26.60;67.70
16846;DHT22;8539;53.188;8.696;2023-06-14T12:20:30;26.50;67.70
16846;DHT22;8539;53.188;8.696;2023-06-14T12:22:59;26.60;67.90
16846;DHT22;8539;53.188;8.696;2023-06-14T12:25:35;26.60;67.90
16846;DHT22;8539;53.188;8.696;2023-06-14T12:28:09;26.60;67.90
16846;DHT22;8539;53.188;8.696;2023-06-14T12:30:36;26.60;68.10
16846;DHT22;8539;53.188;8.696;2023-06-14T12:33:06;26.30;68.30
16846;DHT22;8539;53.188;8.696;2023-06-14T12:35:33;26.10;68.40
16846;DHT22;8539;53.188;8.696;2023-06-14T12:37:59;26.00;68.50
16846;DHT22;8539;53.188;8.696;2023-06-14T12:40:26;26.00;68.70
16846;DHT22;8539;53.188;8.696;2023-06-14T12:42:52;25.90;69.00
16846;DHT22;8539;53.188;8.696;2023-06-14T12:45:19;25.90;69.10
16846;DHT22;8539;53.188;8.696;2023-06-14T12:47:45;25.90;69.40
16846;DHT22;8539;53.188;8.696;2023-06-14T12:50:11;25.80;69.40
16846;DHT22;8539;53.188;8.696;2023-06-14T12:52:37;25.90;69.60
16846;DHT22;8539;53.188;8.696;2023-06-14T12:55:06;26.00;69.90
16846;DHT22;8539;53.188;8.696;2023-06-14T12:57:33;26.30;70.00
16846;DHT22;8539;53.188;8.696;2023-06-14T13:00:02;26.50;70.10
16846;DHT22;8539;53.188;8.696;2023-06-14T13:02:28;26.50;69.90
16846;DHT22;8539;53.188;8.696;2023-06-14T13:04:54;26.40;69.80
16846;DHT22;8539;53.188;8.696;2023-06-14T13:07:21;26.10;69.50
16846;DHT22;8539;53.188;8.696;2023-06-14T13:09:48;25.90;69.20
16846;DHT22;8539;53.188;8.696;2023-06-14T13:12:14;25.70;69.10
16846;DHT22;8539;53.188;8.696;2023-06-14T13:14:40;25.70;69.20
16846;DHT22;8539;53.188;8.696;2023-06-14T13:17:11;25.70;69.60
16846;DHT22;8539;53.188;8.696;2023-06-14T13:19:37;25.90;70.00
16846;DHT22;8539;53.188;8.696;2023-06-14T13:22:04;26.10;70.40
16846;DHT22;8539;53.188;8.696;2023-06-14T13:24:30;26.30;70.50
16846;DHT22;8539;53.188;8.696;2023-06-14T13:26:57;26.50;70.40
16846;DHT22;8539;53.188;8.696;2023-06-14T13:29:24;26.50;70.00
16846;DHT22;8539;53.188;8.696;2023-06-14T13:31:50;26.60;69.70
16846;DHT22;8539;53.188;8.696;2023-06-14T13:34:17;26.70;69.00
16846;DHT22;8539;53.188;8.696;2023-06-14T13:36:43;26.70;68.00
16846;DHT22;8539;53.188;8.696;2023-06-14T13:39:09;26.50;67.70
16846;DHT22;8539;53.188;8.696;2023-06-14T13:41:36;26.30;67.60
16846;DHT22;8539;53.188;8.696;2023-06-14T13:44:03;26.00;67.50
16846;DHT22;8539;53.188;8.696;2023-06-14T13:46:31;25.90;67.70
16846;DHT22;8539;53.188;8.696;2023-06-14T13:48:58;25.80;67.90
16846;DHT22;8539;53.188;8.696;2023-06-14T13:51:24;25.70;68.20
16846;DHT22;8539;53.188;8.696;2023-06-14T13:53:52;25.50;68.40
16846;DHT22;8539;53.188;8.696;2023-06-14T13:56:19;25.30;68.60
16846;DHT22;8539;53.188;8.696;2023-06-14T13:58:45;25.20;68.80
16846;DHT22;8539;53.188;8.696;2023-06-14T14:01:11;25.20;68.90
16846;DHT22;8539;53.188;8.696;2023-06-14T14:03:38;25.20;69.00
16846;DHT22;8539;53.188;8.696;2023-06-14T14:06:05;25.20;69.30
16846;DHT22;8539;53.188;8.696;2023-06-14T14:08:31;25.20;69.50
16846;DHT22;8539;53.188;8.696;2023-06-14T14:10:58;25.20;69.80
16846;DHT22;8539;53.188;8.696;2023-06-14T14:13:24;25.20;69.70
16846;DHT22;8539;53.188;8.696;2023-06-14T14:15:50;25.10;69.70
16846;DHT22;8539;53.188;8.696;2023-06-14T14:18:16;25.00;69.50
16846;DHT22;8539;53.188;8.696;2023-06-14T14:20:43;24.90;69.20
16846;DHT22;8539;53.188;8.696;2023-06-14T14:23:09;24.70;69.00
16846;DHT22;8539;53.188;8.696;2023-06-14T14:25:35;24.70;68.90
16846;DHT22;8539;53.188;8.696;2023-06-14T14:28:02;24.60;69.00
16846;DHT22;8539;53.188;8.696;2023-06-14T14:30:28;24.60;69.30
16846;DHT22;8539;53.188;8.696;2023-06-14T14:32:54;24.60;69.40
16846;DHT22;8539;53.188;8.696;2023-06-14T14:35:21;24.60;69.70
16846;DHT22;8539;53.188;8.696;2023-06-14T14:37:49;24.60;69.80
16846;DHT22;8539;53.188;8.696;2023-06-14T14:40:15;24.60;70.00
16846;DHT22;8539;53.188;8.696;2023-06-14T14:42:41;24.70;70.10
16846;DHT22;8539;53.188;8.696;2023-06-14T14:45:07;25.00;70.10
16846;DHT22;8539;53.188;8.696;2023-06-14T14:47:33;25.10;70.10
16846;DHT22;8539;53.188;8.696;2023-06-14T14:50:00;25.40;70.00
16846;DHT22;8539;53.188;8.696;2023-06-14T14:52:26;25.60;70.00
16846;DHT22;8539;53.188;8.696;2023-06-14T14:54:52;25.90;69.70
16846;DHT22;8539;53.188;8.696;2023-06-14T14:57:19;26.00;69.40
16846;DHT22;8539;53.188;8.696;2023-06-14T14:59:45;26.10;69.20
16846;DHT22;8539;53.188;8.696;2023-06-14T15:02:11;26.10;69.00
16846;DHT22;8539;53.188;8.696;2023-06-14T15:04:37;26.00;68.90
16846;DHT22;8539;53.188;8.696;2023-06-14T15:07:03;25.90;68.60
16846;DHT22;8539;53.188;8.696;2023-06-14T15:09:29;25.70;68.70
16846;DHT22;8539;53.188;8.696;2023-06-14T15:11:56;25.50;68.80
16846;DHT22;8539;53.188;8.696;2023-06-14T15:14:22;25.30;68.90
16846;DHT22;8539;53.188;8.696;2023-06-14T15:16:48;25.20;69.00
16846;DHT22;8539;53.188;8.696;2023-06-14T15:19:14;25.10;69.20
16846;DHT22;8539;53.188;8.696;2023-06-14T15:21:40;25.00;69.40
16846;DHT22;8539;53.188;8.696;2023-06-14T15:24:06;24.90;69.60
16846;DHT22;8539;53.188;8.696;2023-06-14T15:26:32;25.00;69.70
16846;DHT22;8539;53.188;8.696;2023-06-14T15:28:59;25.00;69.80
16846;DHT22;8539;53.188;8.696;2023-06-14T15:31:25;25.30;70.00
16846;DHT22;8539;53.188;8.696;2023-06-14T15:33:54;25.50;69.90
16846;DHT22;8539;53.188;8.696;2023-06-14T15:36:20;25.60;69.80
16846;DHT22;8539;53.188;8.696;2023-06-14T15:38:46;25.80;69.50
16846;DHT22;8539;53.188;8.696;2023-06-14T15:41:12;26.00;69.50
16846;DHT22;8539;53.188;8.696;2023-06-14T15:43:48;26.10;69.40
16846;DHT22;8539;53.188;8.696;2023-06-14T15:46:14;26.30;69.10
16846;DHT22;8539;53.188;8.696;2023-06-14T15:48:40;26.50;68.80
16846;DHT22;8539;53.188;8.696;2023-06-14T15:51:06;26.60;68.50
16846;DHT22;8539;53.188;8.696;2023-06-14T15:53:32;26.60;67.10
16846;DHT22;8539;53.188;8.696;2023-06-14T15:56:00;26.50;66.40
16846;DHT22;8539;53.188;8.696;2023-06-14T15:58:26;26.30;65.90